La Cygne, Kansas
Current Conditions -  °F | °C
As of 10:53 PM on Wednesday 22 Oct 2014 (Local Time) from KIXD Reporting Station
Few Clouds Few Clouds  
Wind Chill: 62°   Ceiling: Unl
Heat Index: 62°   Visibility: 10mi
Dew Point: 52°   Wind: 12mph
Humidity: 70%   Direction: 150°SSE
Pressure: 30.12"   Gusts: NA
Location:  38.35°N, 94.76°W
Report Text: KIXD 230353Z AUTO 15010KT 10SM FEW055 17/11 A3012 RMK AO2 SLP194 T01670111
Loading
Personal Weather Stations






























Interactive Weather Map
Tropical Storm Tracking
New forecast layout! Learn more

10-Day Weather Forecast

Advertisements
Track Severe Weather on mobile